createdAt,value
2019-03-24T00:00:40.536Z,98269.63
2019-03-24T00:03:07.749Z,98261.66
2019-03-24T00:05:35.003Z,98261.79
2019-03-24T00:08:02.342Z,98266.06
2019-03-24T00:10:29.535Z,98264.31
2019-03-24T00:12:56.999Z,98269.38
2019-03-24T00:15:26.511Z,98262.33
2019-03-24T00:17:53.360Z,98264.16
2019-03-24T00:20:20.563Z,98256.34
2019-03-24T00:22:47.754Z,98267.38
2019-03-24T00:25:14.966Z,98262.86
2019-03-24T00:27:42.154Z,98265.84
2019-03-24T00:30:09.896Z,98260.50
2019-03-24T00:32:37.222Z,98252.69
2019-03-24T00:35:04.632Z,98257.38
2019-03-24T00:37:31.812Z,98254.96
2019-03-24T00:39:59.153Z,98256.63
2019-03-24T00:42:26.498Z,98255.02
2019-03-24T00:44:53.765Z,98258.03
2019-03-24T00:47:22.545Z,98252.91
2019-03-24T00:49:49.861Z,98254.27
2019-03-24T00:52:17.171Z,98249.63
2019-03-24T00:54:44.274Z,98252.55
2019-03-24T00:57:11.515Z,98247.87
2019-03-24T00:59:38.706Z,98247.87
2019-03-24T01:02:06.057Z,98250.22
2019-03-24T01:04:33.415Z,98249.11
2019-03-24T01:07:00.656Z,98246.65
2019-03-24T01:09:27.977Z,98238.78
2019-03-24T01:11:55.188Z,98241.43
2019-03-24T01:14:22.402Z,98235.73
2019-03-24T01:16:49.593Z,98232.45
2019-03-24T01:19:16.780Z,98233.52
2019-03-24T01:21:44.128Z,98232.41
2019-03-24T01:24:11.396Z,98235.34
2019-03-24T01:26:38.637Z,98224.25
2019-03-24T01:29:05.950Z,98227.75
2019-03-24T01:31:33.127Z,98226.40
2019-03-24T01:34:00.443Z,98220.70
2019-03-24T01:36:27.748Z,98222.90
2019-03-24T01:38:54.945Z,98224.02
2019-03-24T01:41:22.148Z,98220.78
2019-03-24T01:43:49.539Z,98217.50
2019-03-24T01:46:16.712Z,98213.45
2019-03-24T01:48:43.938Z,98222.12
2019-03-24T01:51:11.332Z,98216.78
2019-03-24T01:53:38.477Z,98215.14
2019-03-24T01:56:06.234Z,98214.03
2019-03-24T01:58:33.531Z,98211.27
2019-03-24T02:01:00.739Z,98209.08
2019-03-24T02:03:27.938Z,98210.91
2019-03-24T02:05:55.316Z,98207.05
2019-03-24T02:08:22.528Z,98204.58
2019-03-24T02:10:49.793Z,98197.44
2019-03-24T02:13:17.027Z,98192.51
2019-03-24T02:15:44.223Z,98196.74
2019-03-24T02:18:11.535Z,98200.47
2019-03-24T02:20:38.844Z,98193.97
2019-03-24T02:23:06.042Z,98193.62
2019-03-24T02:25:33.369Z,98200.84
2019-03-24T02:28:00.621Z,98197.03
2019-03-24T02:30:27.793Z,98191.87
2019-03-24T02:32:55.074Z,98195.52
2019-03-24T02:35:22.316Z,98200.56
2019-03-24T02:37:49.663Z,98194.55
2019-03-24T02:40:16.853Z,98196.38
2019-03-24T02:42:44.100Z,98193.91
2019-03-24T02:45:11.576Z,98194.97
2019-03-24T02:47:38.821Z,98197.61
2019-03-24T02:50:06.829Z,98196.43
2019-03-24T02:52:34.118Z,98193.15
2019-03-24T02:55:01.339Z,98195.26
2019-03-24T02:57:28.520Z,98189.22
2019-03-24T02:59:56.806Z,98193.47
2019-03-24T03:02:24.088Z,98183.97
2019-03-24T03:04:51.309Z,98195.23
2019-03-24T03:07:18.700Z,98187.60
2019-03-24T03:09:45.875Z,98188.07
2019-03-24T03:12:13.235Z,98188.83
2019-03-24T03:14:41.636Z,98188.77
2019-03-24T03:17:08.924Z,98183.84
2019-03-24T03:19:36.120Z,98188.94
2019-03-24T03:22:03.526Z,98180.56
2019-03-24T03:24:30.818Z,98185.95
2019-03-24T03:26:58.094Z,98186.19
2019-03-24T03:29:25.325Z,98182.38
2019-03-24T03:31:52.647Z,98184.55
2019-03-24T03:34:19.878Z,98183.20
2019-03-24T03:36:47.120Z,98184.02
2019-03-24T03:39:14.387Z,98175.25
2019-03-24T03:41:41.554Z,98186.69
2019-03-24T03:44:08.751Z,98181.52
2019-03-24T03:46:36.030Z,98187.44
2019-03-24T03:49:03.230Z,98190.89
2019-03-24T03:51:30.403Z,98186.85
2019-03-24T03:54:00.645Z,98184.69
2019-03-24T03:56:27.907Z,98187.91
2019-03-24T03:58:55.064Z,98178.47
2019-03-24T04:01:22.352Z,98171.20
2019-03-24T04:03:49.763Z,98171.37
2019-03-24T04:06:17.052Z,98174.59
2019-03-24T04:08:44.245Z,98174.01
2019-03-24T04:11:11.643Z,98177.52
2019-03-24T04:13:38.975Z,98176.64
2019-03-24T04:16:06.129Z,98175.82
2019-03-24T04:18:34.637Z,98171.48
2019-03-24T04:21:01.885Z,98171.42
2019-03-24T04:23:29.184Z,98172.77
2019-03-24T04:25:56.386Z,98171.65
2019-03-24T04:28:23.743Z,98166.20
2019-03-24T04:30:52.665Z,98169.78
2019-03-24T04:33:21.225Z,98172.17
2019-03-24T04:35:49.696Z,98166.72
2019-03-24T04:38:17.318Z,98170.77
2019-03-24T04:40:45.827Z,98169.72
2019-03-24T04:43:12.980Z,98179.67
2019-03-24T04:45:40.426Z,98173.16
2019-03-24T04:48:07.626Z,98171.23
2019-03-24T04:50:34.940Z,98167.16
2019-03-24T04:53:02.116Z,98166.80
2019-03-24T04:55:32.212Z,98168.14
2019-03-24T04:57:59.483Z,98163.97
2019-03-24T05:00:34.564Z,98166.60
2019-03-24T05:03:01.994Z,98170.05
2019-03-24T05:05:29.299Z,98168.05
2019-03-24T05:07:56.989Z,98174.72
2019-03-24T05:10:27.455Z,98174.13
2019-03-24T05:12:54.815Z,98173.80
2019-03-24T05:15:22.229Z,98175.90
2019-03-24T05:17:49.588Z,98175.14
2019-03-24T05:20:16.975Z,98178.06
2019-03-24T05:22:44.363Z,98179.64
2019-03-24T05:25:11.720Z,98186.89
2019-03-24T05:27:38.879Z,98187.35
2019-03-24T05:30:06.497Z,98182.19
2019-03-24T05:32:33.747Z,98186.75
2019-03-24T05:35:01.729Z,98186.23
2019-03-24T05:37:29.100Z,98183.54
2019-03-24T05:39:56.308Z,98177.40
2019-03-24T05:42:23.759Z,98172.83
2019-03-24T05:44:50.944Z,98181.21
2019-03-24T05:47:18.175Z,98175.59
2019-03-24T05:49:45.371Z,98165.81
2019-03-24T05:52:12.651Z,98172.16
2019-03-24T05:54:39.941Z,98165.29
2019-03-24T05:57:07.267Z,98167.88
2019-03-24T05:59:34.550Z,98148.66
2019-03-24T06:02:01.818Z,98161.64
2019-03-24T06:04:29.190Z,98162.29
2019-03-24T06:06:56.468Z,98158.05
2019-03-24T06:09:23.905Z,98163.27
2019-03-24T06:11:51.195Z,98153.73
2019-03-24T06:14:18.368Z,98159.54
2019-03-24T06:16:45.851Z,98157.03
2019-03-24T06:19:13.343Z,98152.89
2019-03-24T06:21:40.620Z,98153.59
2019-03-24T06:24:07.849Z,98159.41
2019-03-24T06:26:37.282Z,98150.92
2019-03-24T06:29:04.715Z,98156.78
2019-03-24T06:31:32.016Z,98154.55
2019-03-24T06:34:00.611Z,98149.52
2019-03-24T06:36:27.847Z,98145.16
2019-03-24T06:38:55.204Z,98151.02
2019-03-24T06:41:22.439Z,98143.33
2019-03-24T06:43:49.953Z,98138.14
2019-03-24T06:46:17.343Z,98136.17
2019-03-24T06:48:44.535Z,98136.28
2019-03-24T06:51:11.797Z,98137.54
2019-03-24T06:53:39.750Z,98138.84
2019-03-24T06:56:07.212Z,98136.58
2019-03-24T06:58:34.444Z,98131.64
2019-03-24T07:01:01.831Z,98132.61
2019-03-24T07:03:29.177Z,98136.02
2019-03-24T07:05:56.354Z,98132.63
2019-03-24T07:08:23.675Z,98133.89
2019-03-24T07:10:50.931Z,98138.11
2019-03-24T07:13:19.100Z,98133.36
2019-03-24T07:15:46.652Z,98133.26
2019-03-24T07:18:14.005Z,98131.52
2019-03-24T07:20:41.306Z,98134.63
2019-03-24T07:23:08.509Z,98134.55
2019-03-24T07:25:35.920Z,98132.77
2019-03-24T07:28:03.228Z,98133.68
2019-03-24T07:30:30.486Z,98135.66
2019-03-24T07:32:57.756Z,98131.47
2019-03-24T07:35:25.052Z,98133.22
2019-03-24T07:37:52.244Z,98139.01
2019-03-24T07:40:19.661Z,98139.42
2019-03-24T07:42:46.960Z,98138.14
2019-03-24T07:45:14.264Z,98141.52
2019-03-24T07:47:41.624Z,98141.13
2019-03-24T07:50:09.148Z,98139.63
2019-03-24T07:52:36.509Z,98137.88
2019-03-24T07:55:04.312Z,98130.43
2019-03-24T07:57:32.017Z,98124.02
2019-03-24T07:59:59.238Z,98120.59
2019-03-24T08:02:26.435Z,98119.34
2019-03-24T08:04:53.827Z,98119.63
2019-03-24T08:07:20.897Z,98116.61
2019-03-24T08:09:48.242Z,98107.58
2019-03-24T08:12:15.442Z,98113.98
2019-03-24T08:14:42.803Z,98111.14
2019-03-24T08:17:10.074Z,98107.44
2019-03-24T08:19:37.334Z,98104.27
2019-03-24T08:22:04.573Z,98100.77
2019-03-24T08:24:31.751Z,98100.03
2019-03-24T08:26:59.204Z,98095.17
2019-03-24T08:29:26.472Z,98100.44
2019-03-24T08:31:53.776Z,98101.41
2019-03-24T08:34:20.901Z,98096.83
2019-03-24T08:36:48.128Z,98099.82
2019-03-24T08:39:15.487Z,98098.76
2019-03-24T08:41:42.563Z,98096.55
2019-03-24T08:44:09.716Z,98100.25
2019-03-24T08:46:37.047Z,98098.28
2019-03-24T08:49:04.495Z,98096.00
2019-03-24T08:51:31.749Z,98086.75
2019-03-24T08:53:59.000Z,98093.77
2019-03-24T08:56:26.279Z,98088.04
2019-03-24T08:58:53.623Z,98085.50
2019-03-24T09:01:20.830Z,98087.47
2019-03-24T09:03:48.102Z,98082.23
2019-03-24T09:06:15.189Z,98086.56
2019-03-24T09:08:42.388Z,98078.88
2019-03-24T09:11:09.769Z,98076.81
2019-03-24T09:13:36.944Z,98072.57
2019-03-24T09:16:04.248Z,98062.69
2019-03-24T09:18:31.524Z,98066.48
2019-03-24T09:20:58.836Z,98059.67
2019-03-24T09:23:26.196Z,98057.86
2019-03-24T09:25:53.657Z,98060.23
2019-03-24T09:28:20.938Z,98051.35
2019-03-24T09:30:48.244Z,98057.25
2019-03-24T09:33:15.534Z,98051.59
2019-03-24T09:35:42.845Z,98046.33
2019-03-24T09:38:11.299Z,98042.25
2019-03-24T09:40:38.666Z,98038.69
2019-03-24T09:43:05.912Z,98031.99
2019-03-24T09:45:33.280Z,98030.88
2019-03-24T09:48:00.605Z,98022.88
2019-03-24T09:50:27.988Z,98023.59
2019-03-24T09:52:55.353Z,98019.02
2019-03-24T09:55:22.567Z,98012.17
2019-03-24T09:57:49.823Z,98000.14
2019-03-24T10:00:17.134Z,98008.25
2019-03-24T10:02:44.250Z,98006.94
2019-03-24T10:05:11.800Z,98000.81
2019-03-24T10:07:38.982Z,97999.34
2019-03-24T10:10:06.423Z,97995.67
2019-03-24T10:12:33.690Z,97991.47
2019-03-24T10:15:00.899Z,97988.97
2019-03-24T10:17:28.091Z,97982.90
2019-03-24T10:19:55.216Z,97982.34
2019-03-24T10:22:22.517Z,97986.61
2019-03-24T10:24:49.707Z,97976.45
2019-03-24T10:27:16.903Z,97980.27
2019-03-24T10:29:44.234Z,97972.08
2019-03-24T10:32:11.774Z,97971.47
2019-03-24T10:34:39.246Z,97967.79
2019-03-24T10:37:06.471Z,97969.45
2019-03-24T10:39:33.928Z,97960.13
2019-03-24T10:42:01.271Z,97962.69
2019-03-24T10:44:28.540Z,97956.48
2019-03-24T10:46:55.905Z,97950.27
2019-03-24T10:49:25.047Z,97944.64
2019-03-24T10:51:52.685Z,97945.98
2019-03-24T10:54:19.763Z,97944.99
2019-03-24T10:56:46.946Z,97944.15
2019-03-24T10:59:14.304Z,97937.98
2019-03-24T11:01:41.481Z,97933.99
2019-03-24T11:04:08.772Z,97929.20
2019-03-24T11:06:36.028Z,97928.51
2019-03-24T11:09:04.067Z,97929.54
2019-03-24T11:11:31.143Z,97923.00
2019-03-24T11:13:58.408Z,97925.49
2019-03-24T11:16:25.566Z,97921.47
2019-03-24T11:18:52.908Z,97916.80
2019-03-24T11:21:20.189Z,97914.12
2019-03-24T11:23:47.380Z,97912.15
2019-03-24T11:26:14.579Z,97905.92
2019-03-24T11:28:41.925Z,97904.05
2019-03-24T11:31:09.185Z,97905.83
2019-03-24T11:33:36.364Z,97901.80
2019-03-24T11:36:03.646Z,97899.59
2019-03-24T11:38:31.256Z,97901.36
2019-03-24T11:40:58.373Z,97898.66
2019-03-24T11:43:25.800Z,97889.70
2019-03-24T11:45:53.152Z,97889.01
2019-03-24T11:48:20.323Z,97888.34
2019-03-24T11:50:48.641Z,97887.00
2019-03-24T11:53:15.852Z,97880.78
2019-03-24T11:55:43.041Z,97878.76
2019-03-24T11:58:10.188Z,97878.67
2019-03-24T12:00:38.878Z,97871.56
2019-03-24T12:03:06.363Z,97864.09
2019-03-24T12:05:33.681Z,97864.20
2019-03-24T12:08:01.046Z,97862.88
2019-03-24T12:10:28.345Z,97854.33
2019-03-24T12:12:55.520Z,97848.95
2019-03-24T12:15:22.839Z,97852.19
2019-03-24T12:17:49.941Z,97852.00
2019-03-24T12:20:17.142Z,97841.03
2019-03-24T12:22:44.418Z,97832.62
2019-03-24T12:25:11.700Z,97834.26
2019-03-24T12:27:38.878Z,97829.27
2019-03-24T12:30:07.315Z,97825.67
2019-03-24T12:32:34.659Z,97823.74
2019-03-24T12:35:01.979Z,97814.42
2019-03-24T12:37:29.332Z,97814.19
2019-03-24T12:39:58.091Z,97811.17
2019-03-24T12:42:25.462Z,97805.64
2019-03-24T12:44:52.814Z,97807.53
2019-03-24T12:47:20.135Z,97808.22
2019-03-24T12:49:47.431Z,97802.69
2019-03-24T12:52:14.625Z,97804.77
2019-03-24T12:54:41.908Z,97797.50
2019-03-24T12:57:09.122Z,97787.70
2019-03-24T12:59:36.362Z,97778.78
2019-03-24T13:02:03.780Z,97773.02
2019-03-24T13:04:31.180Z,97774.59
2019-03-24T13:06:58.376Z,97767.64
2019-03-24T13:09:25.766Z,97764.97
2019-03-24T13:11:53.145Z,97768.30
2019-03-24T13:14:20.230Z,97762.30
2019-03-24T13:16:47.455Z,97754.20
2019-03-24T13:19:14.655Z,97752.14
2019-03-24T13:21:41.753Z,97745.16
2019-03-24T13:24:09.009Z,97747.92
2019-03-24T13:26:36.351Z,97748.92
2019-03-24T13:29:03.766Z,97743.38
2019-03-24T13:31:30.952Z,97739.28
2019-03-24T13:33:58.253Z,97741.82
2019-03-24T13:36:25.456Z,97739.34
2019-03-24T13:38:52.639Z,97731.97
2019-03-24T13:41:19.909Z,97732.44
2019-03-24T13:43:46.995Z,97723.21
2019-03-24T13:46:14.374Z,97720.55
2019-03-24T13:48:41.694Z,97724.11
2019-03-24T13:51:08.888Z,97722.76
2019-03-24T13:53:36.230Z,97720.66
2019-03-24T13:56:03.900Z,97716.52
2019-03-24T13:58:31.087Z,97712.86
2019-03-24T14:00:58.497Z,97710.86
2019-03-24T14:03:25.725Z,97703.04
2019-03-24T14:05:52.938Z,97694.98
2019-03-24T14:08:20.186Z,97690.16
2019-03-24T14:10:47.495Z,97693.03
2019-03-24T14:13:14.608Z,97686.46
2019-03-24T14:15:41.796Z,97681.35
2019-03-24T14:18:09.118Z,97683.61
2019-03-24T14:20:43.305Z,97676.77
2019-03-24T14:23:05.614Z,97679.69
2019-03-24T14:25:32.907Z,97675.87
2019-03-24T14:28:00.203Z,97671.40
2019-03-24T14:30:40.270Z,97672.31
2019-03-24T14:33:07.491Z,97675.31
2019-03-24T14:35:34.696Z,97673.92
2019-03-24T14:38:01.996Z,97672.91
2019-03-24T14:40:29.306Z,97668.54
2019-03-24T14:42:56.495Z,97668.53
2019-03-24T14:45:24.283Z,97657.72
2019-03-24T14:47:51.399Z,97662.33
2019-03-24T14:50:18.683Z,97660.00
2019-03-24T14:52:46.091Z,97660.23
2019-03-24T14:55:13.401Z,97653.45
2019-03-24T14:57:40.750Z,97660.25
2019-03-24T15:00:08.452Z,97658.53
2019-03-24T15:02:35.975Z,97661.28
2019-03-24T15:05:03.852Z,97668.17
2019-03-24T15:07:31.023Z,97663.50
2019-03-24T15:09:58.332Z,97661.95
2019-03-24T15:12:25.531Z,97656.19
2019-03-24T15:14:52.732Z,97667.39
2019-03-24T15:17:20.036Z,97664.70
2019-03-24T15:19:47.332Z,97666.95
2019-03-24T15:22:14.546Z,97666.73
2019-03-24T15:24:42.001Z,97665.66
2019-03-24T15:27:09.317Z,97662.95
2019-03-24T15:29:36.528Z,97666.93
2019-03-24T15:32:03.952Z,97663.17
2019-03-24T15:34:31.313Z,97665.73
2019-03-24T15:36:58.492Z,97666.89
2019-03-24T15:39:26.150Z,97669.53
2019-03-24T15:41:53.381Z,97658.88
2019-03-24T15:44:20.599Z,97660.52
2019-03-24T15:46:47.878Z,97668.44
2019-03-24T15:49:14.972Z,97669.36
2019-03-24T15:51:42.126Z,97670.51
2019-03-24T15:54:13.288Z,97674.60
2019-03-24T15:56:40.180Z,97679.06
2019-03-24T15:59:07.575Z,97676.67
2019-03-24T16:01:34.836Z,97671.05
2019-03-24T16:04:02.015Z,97666.31
2019-03-24T16:06:29.274Z,97675.19
2019-03-24T16:08:56.631Z,97678.02
2019-03-24T16:11:23.841Z,97676.07
2019-03-24T16:13:53.983Z,97681.33
2019-03-24T16:16:23.064Z,97682.75
2019-03-24T16:18:50.642Z,97683.59
2019-03-24T16:21:27.311Z,97684.37
2019-03-24T16:23:47.377Z,97682.97
2019-03-24T16:26:14.769Z,97681.56
2019-03-24T16:28:42.113Z,97684.05
2019-03-24T16:31:09.656Z,97675.77
2019-03-24T16:33:36.983Z,97678.15
2019-03-24T16:36:04.453Z,97682.25
2019-03-24T16:38:31.833Z,97689.61
2019-03-24T16:40:59.789Z,97678.40
2019-03-24T16:43:27.182Z,97686.91
2019-03-24T16:45:54.564Z,97683.61
2019-03-24T16:48:21.908Z,97684.97
2019-03-24T16:50:49.206Z,97681.59
2019-03-24T16:53:16.543Z,97681.77
2019-03-24T16:55:43.732Z,97677.62
2019-03-24T16:58:11.020Z,97686.42
2019-03-24T17:00:38.421Z,97689.73
2019-03-24T17:03:05.791Z,97693.74
2019-03-24T17:05:33.077Z,97688.48
2019-03-24T17:08:00.433Z,97694.14
2019-03-24T17:10:27.663Z,97697.34
2019-03-24T17:12:54.827Z,97701.09
2019-03-24T17:15:22.195Z,97705.64
2019-03-24T17:17:49.359Z,97704.16
2019-03-24T17:20:16.576Z,97707.30
2019-03-24T17:22:43.726Z,97711.27
2019-03-24T17:25:11.097Z,97711.66
2019-03-24T17:27:38.490Z,97717.27
2019-03-24T17:30:07.284Z,97715.73
2019-03-24T17:32:34.635Z,97725.63
2019-03-24T17:35:01.834Z,97727.12
2019-03-24T17:37:30.098Z,97730.75
2019-03-24T17:39:57.569Z,97726.22
2019-03-24T17:42:24.907Z,97728.48
2019-03-24T17:44:52.202Z,97731.06
2019-03-24T17:47:19.498Z,97736.91
2019-03-24T17:49:48.045Z,97746.84
2019-03-24T17:52:15.461Z,97751.91
2019-03-24T17:54:42.728Z,97752.08
2019-03-24T17:57:10.187Z,97760.37
2019-03-24T17:59:37.542Z,97754.83
2019-03-24T18:02:14.161Z,97755.22
2019-03-24T18:04:37.528Z,97758.89
2019-03-24T18:07:04.836Z,97765.05
2019-03-24T18:09:32.251Z,97772.52
2019-03-24T18:11:59.436Z,97767.17
2019-03-24T18:14:26.753Z,97768.39
2019-03-24T18:16:54.066Z,97765.77
2019-03-24T18:19:21.421Z,97770.49
2019-03-24T18:21:48.792Z,97767.58
2019-03-24T18:24:16.242Z,97782.36
2019-03-24T18:26:43.598Z,97785.40
2019-03-24T18:29:10.863Z,97790.08
2019-03-24T18:31:38.092Z,97793.12
2019-03-24T18:34:05.375Z,97794.02
2019-03-24T18:36:32.810Z,97790.80
2019-03-24T18:39:00.249Z,97795.77
2019-03-24T18:41:27.639Z,97794.47
2019-03-24T18:43:55.141Z,97801.88
2019-03-24T18:46:22.379Z,97796.20
2019-03-24T18:48:50.974Z,97800.89
2019-03-24T18:51:18.049Z,97797.98
2019-03-24T18:53:45.340Z,97802.39
2019-03-24T18:56:12.617Z,97805.44
2019-03-24T18:58:39.940Z,97808.23
2019-03-24T19:01:07.322Z,97811.27
2019-03-24T19:03:34.568Z,97809.12
2019-03-24T19:06:01.841Z,97812.72
2019-03-24T19:08:29.334Z,97810.84
2019-03-24T19:10:56.777Z,97817.67
2019-03-24T19:13:24.011Z,97816.64
2019-03-24T19:15:51.263Z,97824.81
2019-03-24T19:18:18.581Z,97824.28
2019-03-24T19:20:45.867Z,97826.45
2019-03-24T19:23:13.155Z,97822.14
2019-03-24T19:25:40.426Z,97833.02
2019-03-24T19:28:07.747Z,97828.95
2019-03-24T19:30:39.589Z,97836.30
2019-03-24T19:33:07.034Z,97833.34
2019-03-24T19:35:34.501Z,97834.98
2019-03-24T19:38:02.964Z,97836.88
2019-03-24T19:40:31.867Z,97832.81
2019-03-24T19:42:59.176Z,97829.00
2019-03-24T19:45:26.608Z,97824.11
2019-03-24T19:47:54.111Z,97827.38
2019-03-24T19:50:21.499Z,97824.12
2019-03-24T19:52:48.974Z,97831.48
2019-03-24T19:55:16.365Z,97829.30
2019-03-24T19:57:43.679Z,97833.65
2019-03-24T20:00:10.958Z,97837.99
2019-03-24T20:02:38.333Z,97833.11
2019-03-24T20:05:07.127Z,97849.40
2019-03-24T20:07:35.659Z,97849.40
2019-03-24T20:10:03.240Z,97847.22
2019-03-24T20:12:31.337Z,97845.86
2019-03-24T20:14:58.532Z,97843.97
2019-03-24T20:17:25.844Z,97841.52
2019-03-24T20:19:53.162Z,97837.45
2019-03-24T20:22:20.895Z,97840.98
2019-03-24T20:24:48.300Z,97837.71
2019-03-24T20:27:15.692Z,97841.27
2019-03-24T20:29:43.062Z,97831.48
2019-03-24T20:32:10.553Z,97834.98
2019-03-24T20:34:37.964Z,97831.47
2019-03-24T20:37:05.272Z,97831.98
2019-03-24T20:39:33.892Z,97836.03
2019-03-24T20:42:04.078Z,97833.85
2019-03-24T20:44:31.379Z,97835.50
2019-03-24T20:46:58.632Z,97840.66
2019-03-24T20:49:26.085Z,97842.52
2019-03-24T20:51:53.422Z,97832.19
2019-03-24T20:54:20.807Z,97826.17
2019-03-24T20:56:48.175Z,97823.19
2019-03-24T20:59:15.501Z,97812.86
2019-03-24T21:01:42.889Z,97809.05
2019-03-24T21:04:10.384Z,97806.86
2019-03-24T21:06:37.697Z,97808.77
2019-03-24T21:09:06.809Z,97809.02
2019-03-24T21:11:34.252Z,97812.81
2019-03-24T21:14:01.624Z,97814.70
2019-03-24T21:16:28.953Z,97814.70
2019-03-24T21:18:56.323Z,97814.14
2019-03-24T21:21:23.755Z,97815.73
2019-03-24T21:23:51.261Z,97815.45
2019-03-24T21:26:18.568Z,97804.32
2019-03-24T21:28:46.028Z,97805.64
2019-03-24T21:31:13.342Z,97798.32
2019-03-24T21:33:40.739Z,97798.29
2019-03-24T21:36:08.106Z,97796.67
2019-03-24T21:38:35.336Z,97800.17
2019-03-24T21:41:02.673Z,97791.73
2019-03-24T21:43:30.075Z,97790.05
2019-03-24T21:45:57.448Z,97798.16
2019-03-24T21:48:25.000Z,97802.98
2019-03-24T21:50:52.353Z,97808.05
2019-03-24T21:53:19.600Z,97800.18
2019-03-24T21:55:47.027Z,97794.42
2019-03-24T21:58:14.415Z,97794.36
2019-03-24T22:00:41.779Z,97798.11
2019-03-24T22:03:09.111Z,97807.78
2019-03-24T22:05:36.854Z,97814.48
2019-03-24T22:08:04.947Z,97813.05
2019-03-24T22:10:32.327Z,97817.11
2019-03-24T22:12:59.606Z,97810.59
2019-03-24T22:15:27.098Z,97808.20
2019-03-24T22:17:54.422Z,97813.08
2019-03-24T22:20:21.680Z,97808.78
2019-03-24T22:22:49.961Z,97803.68
2019-03-24T22:25:17.368Z,97807.81
2019-03-24T22:27:44.576Z,97802.68
2019-03-24T22:30:11.983Z,97795.40
2019-03-24T22:32:40.039Z,97799.73
2019-03-24T22:35:07.415Z,97805.19
2019-03-24T22:37:34.748Z,97799.75
2019-03-24T22:40:03.692Z,97798.14
2019-03-24T22:42:31.898Z,97796.23
2019-03-24T22:44:59.293Z,97794.12
2019-03-24T22:47:26.629Z,97793.05
2019-03-24T22:49:53.904Z,97790.94
2019-03-24T22:52:21.176Z,97786.91
2019-03-24T22:54:48.372Z,97781.51
2019-03-24T22:57:15.575Z,97764.72
2019-03-24T22:59:42.772Z,97766.09
2019-03-24T23:02:10.093Z,97760.43
2019-03-24T23:04:37.381Z,97756.39
2019-03-24T23:07:04.637Z,97760.77
2019-03-24T23:09:31.823Z,97753.75
2019-03-24T23:11:59.047Z,97754.58
2019-03-24T23:14:26.349Z,97749.98
2019-03-24T23:16:53.623Z,97754.61
2019-03-24T23:19:20.909Z,97753.01
2019-03-24T23:21:48.373Z,97757.09
2019-03-24T23:24:16.101Z,97754.93
2019-03-24T23:26:43.537Z,97757.10
2019-03-24T23:29:11.044Z,97754.93
2019-03-24T23:31:38.236Z,97756.30
2019-03-24T23:34:05.358Z,97745.73
2019-03-24T23:36:32.758Z,97742.50
2019-03-24T23:38:59.956Z,97742.78
2019-03-24T23:41:27.147Z,97738.42
2019-03-24T23:43:54.460Z,97738.70
2019-03-24T23:46:21.695Z,97742.23
2019-03-24T23:48:48.861Z,97740.05
2019-03-24T23:51:16.159Z,97744.09
2019-03-24T23:53:43.328Z,97748.16
2019-03-24T23:56:10.690Z,97747.88
2019-03-24T23:58:41.028Z,97740.30
